18°C Temp
13°C Dewpoint
73% Humidity
Temperature
8 KM/H
5 MPH
4 KTS
230°
South West

Wind Speed
Partly Cloudy
Conditions
Pressure 1011.92 (hPa) - 29.88 (in)
Visibility 6.2 (mi) - 10.0 (km)

Current Conditions
LGKV
Location 11(km)
Metar :LGKV 141750Z 23004KT 9999 FEW025 SCT080 18/13 Q1012
Mon 14th June 19:50 pm

Airport
  Metar Aviation API Data Provided by https://www.checkwx.com/ PHP scripts by weather34.com ©2021